Time;durP1;ratioP1;P1;durP2;ratioP2;P2;SDS_P1;SDS_P2;PMS_P1;PMS_P2;Temp;Humidity;BMP_temperature;BMP_pressure;BME280_temperature;BME280_humidity;BME280_pressure;Samples;Min_cycle;Max_cycle;Signal;HPM_P1;HPM_P2
2023/05/05 00:01:38;;;;;;;6.18;4.35;;;17.20;99.90;;;;;;5091209;28;20173;-55
2023/05/05 00:04:03;;;;;;;8.40;4.60;;;17.10;99.90;;;;;;5091171;28;20261;-55
2023/05/05 00:06:30;;;;;;;8.02;4.75;;;17.10;99.90;;;;;;5091241;28;20173;-55
2023/05/05 00:08:55;;;;;;;9.60;4.72;;;17.10;99.90;;;;;;5091295;28;20573;-52
2023/05/05 00:11:21;;;;;;;8.35;5.00;;;17.00;99.90;;;;;;5091293;28;20218;-52
2023/05/05 00:13:47;;;;;;;10.15;5.63;;;17.10;99.90;;;;;;5091650;28;20214;-52
2023/05/05 00:16:12;;;;;;;9.13;5.35;;;17.00;99.90;;;;;;5091255;28;20177;-52
2023/05/05 00:18:38;;;;;;;7.97;4.85;;;16.90;99.90;;;;;;5091115;28;20209;-52
2023/05/05 00:21:03;;;;;;;7.75;5.45;;;16.80;99.90;;;;;;5091221;28;20173;-52
2023/05/05 00:23:29;;;;;;;9.73;5.35;;;;;;;;;;5093399;28;20170;-52
2023/05/05 00:25:55;;;;;;;5.72;5.13;;;16.80;99.90;;;;;;5095290;28;20165;-52
2023/05/05 00:28:21;;;;;;;5.97;4.53;;;16.60;99.90;;;;;;5094943;28;20578;-52
2023/05/05 00:30:46;;;;;;;5.80;4.93;;;16.60;99.90;;;;;;5095324;28;20688;-52
2023/05/05 00:33:12;;;;;;;6.85;4.60;;;16.50;99.90;;;;;;5094874;28;20555;-51
2023/05/05 00:35:37;;;;;;;7.25;4.65;;;16.50;99.90;;;;;;5094826;28;20165;-52
2023/05/05 00:38:03;;;;;;;6.95;4.28;;;16.40;99.90;;;;;;5094901;28;20200;-52
2023/05/05 00:40:29;;;;;;;8.13;5.35;;;16.40;99.90;;;;;;5094765;28;20218;-52
2023/05/05 00:42:55;;;;;;;4.85;4.40;;;16.20;99.90;;;;;;5094688;28;20525;-52
2023/05/05 00:45:21;;;;;;;6.20;4.75;;;16.30;99.90;;;;;;5094833;28;20173;-52
2023/05/05 00:48:00;;;;;;;7.28;5.03;;;16.30;99.90;;;;;;5095243;28;20630;-52
2023/05/05 00:50:28;;;;;;;8.07;5.30;;;16.30;99.90;;;;;;5094693;28;20654;-52
2023/05/05 00:52:56;;;;;;;7.07;4.55;;;16.20;99.90;;;;;;5093213;28;20193;-52
2023/05/05 00:55:22;;;;;;;6.75;4.68;;;16.20;99.90;;;;;;5094415;28;20634;-52
2023/05/05 00:57:48;;;;;;;9.10;4.72;;;16.20;99.90;;;;;;5094717;28;20205;-52
2023/05/05 01:00:15;;;;;;;6.40;5.00;;;16.20;99.90;;;;;;5094890;28;20592;-51
2023/05/05 01:02:41;;;;;;;5.60;4.90;;;16.20;99.90;;;;;;5094223;28;20184;-51
2023/05/05 01:05:08;;;;;;;5.55;4.60;;;16.20;99.90;;;;;;5094151;28;20213;-51
2023/05/05 01:08:02;;;;;;;6.68;5.05;;;16.20;99.90;;;;;;5094083;28;20166;-52
2023/05/05 01:11:07;;;;;;;9.30;4.75;;;16.20;99.90;;;;;;5094129;28;20162;-51
2023/05/05 01:14:02;;;;;;;7.53;4.90;;;16.10;99.90;;;;;;5093753;28;20492;-51
2023/05/05 01:16:31;;;;;;;7.45;4.55;;;16.10;99.90;;;;;;5094291;28;20170;-51
2023/05/05 01:19:43;;;;;;;7.80;5.18;;;16.10;99.90;;;;;;5093903;28;20666;-51
2023/05/05 01:22:12;;;;;;;7.97;4.72;;;16.00;99.90;;;;;;5051566;28;20167;-51
2023/05/05 01:24:45;;;;;;;6.85;4.75;;;15.90;99.90;;;;;;5051544;28;20175;-51
2023/05/05 01:27:54;;;;;;;5.07;4.60;;;15.90;99.90;;;;;;5076824;28;20184;-51
2023/05/05 01:30:41;;;;;;;13.65;4.45;;;15.80;99.90;;;;;;5088402;28;20177;-51
2023/05/05 01:33:10;;;;;;;8.68;5.20;;;15.70;99.90;;;;;;5093962;28;20519;-51
2023/05/05 01:35:41;;;;;;;9.95;5.35;;;15.70;99.90;;;;;;5092971;28;20252;-51
2023/05/05 01:38:10;;;;;;;7.47;5.18;;;15.70;99.90;;;;;;5093530;28;20215;-51
2023/05/05 01:40:49;;;;;;;9.70;5.57;;;15.70;99.90;;;;;;5093848;28;20176;-51
2023/05/05 01:43:18;;;;;;;7.15;5.15;;;15.60;99.90;;;;;;5093846;28;20165;-51
2023/05/05 01:45:45;;;;;;;7.82;5.20;;;15.70;99.90;;;;;;5093385;28;20590;-51
2023/05/05 01:48:13;;;;;;;7.15;4.80;;;15.70;99.90;;;;;;5093349;28;20244;-51
2023/05/05 01:50:41;;;;;;;8.32;4.80;;;15.60;99.90;;;;;;5093424;28;20158;-51
2023/05/05 01:53:08;;;;;;;6.63;5.28;;;15.50;99.90;;;;;;5093626;28;20177;-51
2023/05/05 01:55:35;;;;;;;6.00;4.78;;;15.50;99.90;;;;;;5093500;28;20173;-52
2023/05/05 01:58:04;;;;;;;9.75;5.05;;;15.50;99.90;;;;;;5093107;28;20223;-52
2023/05/05 02:00:30;;;;;;;5.57;5.07;;;15.50;99.90;;;;;;5093200;28;20161;-52
2023/05/05 02:02:58;;;;;;;7.00;5.20;;;15.60;99.90;;;;;;5093232;28;20162;-52
2023/05/05 02:05:25;;;;;;;6.28;5.07;;;15.60;99.90;;;;;;5092972;28;20362;-51
2023/05/05 02:07:55;;;;;;;6.10;5.38;;;15.60;99.90;;;;;;5093257;28;20184;-52
2023/05/05 02:10:21;;;;;;;6.57;5.25;;;15.60;99.90;;;;;;5092944;28;20274;-52
2023/05/05 02:12:47;;;;;;;8.30;5.07;;;15.60;99.90;;;;;;5093422;28;20193;-51
2023/05/05 02:15:15;;;;;;;7.30;4.88;;;15.60;99.90;;;;;;5092854;28;20523;-51
2023/05/05 02:17:42;;;;;;;9.02;5.30;;;15.60;99.90;;;;;;5092973;28;20205;-51
2023/05/05 02:20:11;;;;;;;6.90;5.43;;;15.60;99.90;;;;;;5092699;28;20169;-51
2023/05/05 02:22:37;;;;;;;6.22;5.45;;;15.50;99.90;;;;;;5092670;28;20660;-51
2023/05/05 02:25:03;;;;;;;11.70;5.28;;;15.60;99.90;;;;;;5092660;28;20244;-51
2023/05/05 02:27:30;;;;;;;8.20;5.03;;;15.60;99.90;;;;;;5092606;28;20173;-52
2023/05/05 02:30:01;;;;;;;5.82;5.13;;;15.60;99.90;;;;;;5092613;28;20176;-52
2023/05/05 02:32:36;;;;;;;5.22;4.70;;;15.50;99.90;;;;;;5092853;28;20528;-52
2023/05/05 02:35:14;;;;;;;6.72;5.63;;;15.50;99.90;;;;;;5092561;28;20161;-51
2023/05/05 02:37:45;;;;;;;7.03;5.55;;;15.60;99.90;;;;;;5092610;28;20229;-51
2023/05/05 02:40:14;;;;;;;9.32;5.35;;;15.60;99.90;;;;;;5092328;28;20260;-51
2023/05/05 02:42:43;;;;;;;5.90;4.95;;;15.60;99.90;;;;;;5092336;28;20698;-51
2023/05/05 02:45:13;;;;;;;6.90;4.97;;;15.70;99.90;;;;;;5092206;28;20710;-51
2023/05/05 02:47:39;;;;;;;7.53;6.03;;;15.60;99.90;;;;;;5092284;28;20169;-51
2023/05/05 02:50:05;;;;;;;8.60;5.38;;;15.60;99.90;;;;;;5092250;28;20576;-51
2023/05/05 02:52:32;;;;;;;7.50;5.57;;;15.70;99.90;;;;;;5092465;28;20173;-51
2023/05/05 02:54:58;;;;;;;6.47;5.65;;;15.60;99.90;;;;;;5092154;28;20162;-51
2023/05/05 02:57:47;;;;;;;10.90;5.63;;;15.70;99.90;;;;;;5092056;28;20563;-52
2023/05/05 03:00:41;;;;;;;7.18;6.10;;;15.70;99.90;;;;;;5092079;28;20176;-52
2023/05/05 03:03:32;;;;;;;6.82;5.55;;;15.70;99.90;;;;;;5086274;28;20177;-52
2023/05/05 03:06:09;;;;;;;7.40;6.20;;;15.60;99.90;;;;;;5091859;28;20221;-52
2023/05/05 03:08:42;;;;;;;9.75;5.80;;;15.60;99.90;;;;;;5091977;28;20165;-52
2023/05/05 03:11:17;;;;;;;8.63;5.28;;;15.60;99.90;;;;;;5091891;28;20223;-52
2023/05/05 03:13:45;;;;;;;10.32;6.22;;;15.50;99.90;;;;;;5091835;28;20205;-51
2023/05/05 03:16:14;;;;;;;6.65;6.03;;;15.50;99.90;;;;;;5091847;28;20168;-52
2023/05/05 03:18:41;;;;;;;8.85;5.82;;;15.40;99.90;;;;;;5092075;28;20230;-52
2023/05/05 03:21:07;;;;;;;6.40;5.55;;;15.40;99.90;;;;;;5091812;28;20635;-52
2023/05/05 03:23:34;;;;;;;6.47;5.82;;;15.40;99.90;;;;;;5091800;28;20165;-52
2023/05/05 03:25:59;;;;;;;6.72;6.03;;;15.30;99.90;;;;;;5091956;28;20248;-52
2023/05/05 03:28:26;;;;;;;8.52;6.05;;;15.30;99.90;;;;;;5091685;28;20732;-52
2023/05/05 03:30:52;;;;;;;7.72;6.00;;;15.30;99.90;;;;;;5091682;28;20181;-52
2023/05/05 03:33:17;;;;;;;9.50;5.53;;;15.30;99.90;;;;;;5092067;28;20169;-52
2023/05/05 03:35:43;;;;;;;10.82;6.20;;;15.20;99.90;;;;;;5091178;28;20507;-51
2023/05/05 03:38:09;;;;;;;8.65;6.10;;;15.20;99.90;;;;;;5091339;28;20212;-52
2023/05/05 03:40:34;;;;;;;8.35;6.53;;;15.20;99.90;;;;;;5091812;28;20172;-52
2023/05/05 03:43:00;;;;;;;7.70;6.45;;;15.20;99.90;;;;;;5091566;28;20161;-52
2023/05/05 03:45:25;;;;;;;11.73;6.70;;;15.20;99.90;;;;;;5091604;28;20191;-52
2023/05/05 03:47:51;;;;;;;8.57;6.80;;;15.20;99.90;;;;;;5091464;28;20249;-52
2023/05/05 03:50:17;;;;;;;10.73;6.47;;;15.10;99.90;;;;;;5091915;28;20169;-52
2023/05/05 03:52:42;;;;;;;8.55;6.57;;;15.10;99.90;;;;;;5091456;28;20180;-52
2023/05/05 03:55:08;;;;;;;8.95;6.95;;;15.10;99.90;;;;;;5091406;28;20165;-52
2023/05/05 03:57:33;;;;;;;8.77;6.93;;;15.10;99.90;;;;;;5092054;28;20680;-52
2023/05/05 04:00:00;;;;;;;13.15;7.20;;;15.10;99.90;;;;;;5095515;28;20203;-52
2023/05/05 04:02:25;;;;;;;7.72;6.93;;;15.10;99.90;;;;;;5095696;28;20207;-52
2023/05/05 04:04:51;;;;;;;11.52;7.03;;;15.10;99.90;;;;;;5095239;28;20264;-52
2023/05/05 04:07:16;;;;;;;9.00;7.32;;;15.10;99.90;;;;;;5095632;28;20176;-52
2023/05/05 04:09:45;;;;;;;11.50;7.22;;;15.10;99.90;;;;;;5095616;28;20227;-52
2023/05/05 04:12:11;;;;;;;9.48;6.95;;;15.00;99.90;;;;;;5095498;28;20176;-52
2023/05/05 04:14:36;;;;;;;8.02;7.03;;;15.00;99.90;;;;;;5095253;28;20161;-52
2023/05/05 04:17:02;;;;;;;8.45;7.07;;;15.00;99.90;;;;;;5095354;28;20169;-53
2023/05/05 04:19:31;;;;;;;10.40;6.95;;;14.90;99.90;;;;;;5095114;28;20204;-51
2023/05/05 04:21:56;;;;;;;9.73;6.90;;;14.80;99.90;;;;;;5095070;28;20170;-52
2023/05/05 04:24:23;;;;;;;9.32;7.07;;;14.70;99.90;;;;;;5095100;28;20165;-52
2023/05/05 04:26:50;;;;;;;9.65;7.15;;;14.70;99.90;;;;;;5094887;28;20205;-52
2023/05/05 04:29:15;;;;;;;11.43;7.93;;;14.70;99.90;;;;;;5095260;28;20634;-52
2023/05/05 04:31:41;;;;;;;9.95;7.13;;;14.70;99.90;;;;;;5094890;28;20176;-52
2023/05/05 04:34:07;;;;;;;8.77;6.90;;;14.70;99.90;;;;;;5094886;28;20169;-52
2023/05/05 04:36:33;;;;;;;15.10;8.43;;;14.70;99.90;;;;;;5094867;28;20176;-52
2023/05/05 04:38:59;;;;;;;14.20;8.45;;;14.70;99.90;;;;;;5094790;28;20205;-52
2023/05/05 04:41:24;;;;;;;10.77;7.88;;;14.70;99.90;;;;;;5094684;28;20689;-52
2023/05/05 04:43:50;;;;;;;11.93;7.75;;;14.80;99.90;;;;;;5094908;28;20218;-52
2023/05/05 04:46:15;;;;;;;11.15;8.52;;;14.90;99.90;;;;;;5095062;28;20161;-52
2023/05/05 04:48:41;;;;;;;10.80;8.00;;;14.90;99.90;;;;;;5094584;28;20162;-52
2023/05/05 04:51:06;;;;;;;10.48;8.38;;;15.00;99.90;;;;;;5094479;28;20173;-52
2023/05/05 04:53:32;;;;;;;11.68;9.00;;;15.00;99.90;;;;;;5094278;28;20260;-53
2023/05/05 04:56:01;;;;;;;11.07;8.32;;;15.10;99.90;;;;;;5094537;28;20668;-52
2023/05/05 04:58:27;;;;;;;15.93;8.60;;;15.10;99.90;;;;;;5094244;28;20233;-52
2023/05/05 05:00:53;;;;;;;9.77;8.48;;;15.10;99.90;;;;;;5094361;28;20201;-52
2023/05/05 05:03:18;;;;;;;11.93;8.35;;;15.10;99.90;;;;;;5094484;28;20177;-52
2023/05/05 05:05:44;;;;;;;9.50;8.48;;;15.20;99.90;;;;;;5094415;28;20222;-52
2023/05/05 05:08:09;;;;;;;12.88;8.43;;;15.20;99.90;;;;;;5094144;28;20170;-52
2023/05/05 05:10:35;;;;;;;22.15;12.77;;;15.20;99.90;;;;;;5092394;28;20173;-52
2023/05/05 05:13:01;;;;;;;17.77;12.38;;;15.20;99.90;;;;;;5093674;28;20177;-51
2023/05/05 05:15:26;;;;;;;18.38;10.05;;;15.30;99.90;;;;;;5093854;28;20178;-51
2023/05/05 05:17:52;;;;;;;12.75;8.38;;;15.20;99.90;;;;;;5093793;28;20201;-51
2023/05/05 05:20:18;;;;;;;13.38;8.90;;;;;;;;;;5094409;28;20169;-52
2023/05/05 05:22:44;;;;;;;14.15;9.63;;;15.30;99.90;;;;;;5094490;28;20161;-51
2023/05/05 05:25:09;;;;;;;9.98;8.50;;;15.30;99.90;;;;;;5093788;28;20180;-52
2023/05/05 05:27:35;;;;;;;12.57;9.43;;;15.40;99.90;;;;;;5093717;28;20210;-51
2023/05/05 05:30:02;;;;;;;11.48;9.18;;;15.40;99.90;;;;;;5093603;28;20207;-51
2023/05/05 05:32:27;;;;;;;13.48;8.75;;;15.50;99.90;;;;;;5093759;28;20176;-51
2023/05/05 05:34:53;;;;;;;11.88;9.18;;;15.50;99.90;;;;;;5093421;28;20165;-51
2023/05/05 05:37:18;;;;;;;10.65;9.52;;;15.60;99.90;;;;;;5093427;28;20669;-51
2023/05/05 05:39:50;;;;;;;11.30;9.13;;;15.70;99.90;;;;;;5093797;28;20524;-51
2023/05/05 05:42:16;;;;;;;11.68;9.35;;;15.80;99.90;;;;;;5093984;28;20165;-51
2023/05/05 05:44:41;;;;;;;12.90;9.82;;;15.90;99.90;;;;;;5093346;28;20184;-51
2023/05/05 05:47:07;;;;;;;14.07;9.43;;;15.90;99.90;;;;;;5093347;28;20691;-51
2023/05/05 05:49:33;;;;;;;12.63;9.30;;;16.00;99.90;;;;;;5093262;28;20157;-51
2023/05/05 05:51:58;;;;;;;11.95;9.38;;;16.10;99.90;;;;;;5093246;28;20165;-51
2023/05/05 05:54:24;;;;;;;12.65;9.10;;;16.10;99.90;;;;;;5093192;28;20170;-51
2023/05/05 05:56:49;;;;;;;12.60;9.82;;;16.10;99.90;;;;;;5093261;28;20537;-51
2023/05/05 05:59:15;;;;;;;12.27;9.70;;;16.10;99.90;;;;;;5093521;28;20300;-51
2023/05/05 06:01:40;;;;;;;11.13;9.95;;;16.20;99.90;;;;;;5093143;28;20197;-51
2023/05/05 06:04:06;;;;;;;13.98;10.00;;;16.30;99.90;;;;;;5092985;28;20240;-51
2023/05/05 06:06:31;;;;;;;12.55;10.13;;;16.30;99.90;;;;;;5092999;28;20195;-51
2023/05/05 06:08:57;;;;;;;11.25;9.48;;;16.40;99.90;;;;;;5093260;28;20176;-51
2023/05/05 06:11:22;;;;;;;11.13;9.93;;;16.50;99.90;;;;;;5092988;28;20174;-51
2023/05/05 06:13:48;;;;;;;11.65;10.10;;;;;;;;;;5092916;28;20173;-51
2023/05/05 06:16:14;;;;;;;13.93;9.77;;;16.60;99.90;;;;;;5093378;28;20618;-51
2023/05/05 06:18:40;;;;;;;13.85;10.38;;;;;;;;;;5092644;28;20238;-51
2023/05/05 06:21:06;;;;;;;15.98;10.63;;;16.90;99.90;;;;;;5092234;28;20165;-51
2023/05/05 06:23:31;;;;;;;13.18;10.40;;;16.90;99.90;;;;;;5092973;28;20177;-51
2023/05/05 06:25:57;;;;;;;11.43;10.25;;;17.00;99.90;;;;;;5092772;28;20165;-51
2023/05/05 06:28:22;;;;;;;13.15;10.77;;;17.10;99.90;;;;;;5092568;28;20165;-51
2023/05/05 06:30:48;;;;;;;11.93;10.60;;;17.10;99.90;;;;;;5092603;28;20165;-51
2023/05/05 06:33:13;;;;;;;13.50;11.30;;;17.20;99.90;;;;;;5092924;28;20281;-52
2023/05/05 06:35:39;;;;;;;16.20;11.45;;;17.40;99.90;;;;;;5092513;28;20169;-51
2023/05/05 06:38:05;;;;;;;14.20;10.85;;;17.50;99.90;;;;;;5092396;28;20201;-51
2023/05/05 06:40:30;;;;;;;15.45;11.50;;;17.50;99.90;;;;;;5092294;28;20372;-51
2023/05/05 06:42:56;;;;;;;13.93;11.55;;;17.60;99.90;;;;;;5092620;28;20188;-51
2023/05/05 06:45:22;;;;;;;16.00;11.70;;;17.60;99.90;;;;;;5092308;28;20177;-51
2023/05/05 06:47:48;;;;;;;13.85;10.55;;;;;;;;;;5092258;28;20529;-51
2023/05/05 06:50:13;;;;;;;13.32;11.93;;;17.80;99.90;;;;;;5092812;28;20177;-51
2023/05/05 06:52:40;;;;;;;16.25;12.98;;;17.90;99.90;;;;;;5092178;28;20540;-51
2023/05/05 06:55:06;;;;;;;16.33;11.98;;;17.80;99.90;;;;;;5092392;28;20181;-51
2023/05/05 06:57:31;;;;;;;15.80;11.82;;;17.80;99.90;;;;;;5091976;28;20193;-51
2023/05/05 06:59:57;;;;;;;15.63;12.63;;;17.80;99.90;;;;;;5092098;28;20173;-51
2023/05/05 07:02:23;;;;;;;15.05;12.77;;;17.90;99.90;;;;;;5092063;28;20256;-51
2023/05/05 07:04:48;;;;;;;14.05;12.02;;;18.00;99.90;;;;;;5090513;28;20212;-51
2023/05/05 07:07:14;;;;;;;15.15;12.85;;;18.00;99.90;;;;;;5092414;28;20535;-51
2023/05/05 07:09:41;;;;;;;21.33;12.70;;;18.00;99.90;;;;;;5092114;28;20288;-51
2023/05/05 07:12:06;;;;;;;15.65;13.23;;;18.10;99.90;;;;;;5091884;28;20197;-51
2023/05/05 07:14:32;;;;;;;14.57;12.95;;;18.00;99.90;;;;;;5091781;28;20193;-51
2023/05/05 07:16:57;;;;;;;14.95;12.77;;;18.00;99.90;;;;;;5091772;28;20175;-52
2023/05/05 07:19:23;;;;;;;16.75;13.63;;;18.10;99.90;;;;;;5091699;28;20252;-51
2023/05/05 07:21:49;;;;;;;15.15;12.52;;;;;;;;;;5091771;28;20248;-51
2023/05/05 07:24:14;;;;;;;14.38;12.82;;;18.20;99.90;;;;;;5092053;28;20165;-51
2023/05/05 07:26:40;;;;;;;17.92;13.23;;;18.40;99.90;;;;;;5091696;28;20176;-51
2023/05/05 07:29:06;;;;;;;17.58;13.27;;;18.50;99.90;;;;;;5091919;28;20176;-52
2023/05/05 07:31:31;;;;;;;17.40;12.70;;;18.70;99.90;;;;;;5091708;28;20219;-51
2023/05/05 07:33:57;;;;;;;14.30;12.80;;;18.60;99.90;;;;;;5091040;28;20176;-51
2023/05/05 07:36:23;;;;;;;13.93;11.82;;;18.70;99.90;;;;;;5091567;28;20165;-51
2023/05/05 07:38:48;;;;;;;14.77;13.18;;;18.70;99.90;;;;;;5091733;28;20658;-51
2023/05/05 07:41:14;;;;;;;17.23;12.40;;;18.90;99.90;;;;;;5091814;28;20158;-51
2023/05/05 07:43:40;;;;;;;14.30;12.85;;;19.20;99.90;;;;;;5091474;28;20172;-51
2023/05/05 07:46:06;;;;;;;17.00;13.55;;;19.30;99.90;;;;;;5091717;28;20169;-51
2023/05/05 07:48:32;;;;;;;15.70;14.00;;;19.30;99.90;;;;;;5091545;28;20256;-51
2023/05/05 07:50:57;;;;;;;16.13;14.48;;;19.70;99.90;;;;;;5091432;28;20201;-51
2023/05/05 07:53:23;;;;;;;17.55;14.10;;;19.60;99.90;;;;;;5091683;28;20169;-51
2023/05/05 07:55:48;;;;;;;18.98;15.35;;;19.50;99.90;;;;;;5091413;28;20614;-51
2023/05/05 07:58:14;;;;;;;18.00;15.60;;;19.50;99.90;;;;;;5091751;28;20228;-51
2023/05/05 08:00:40;;;;;;;20.20;16.40;;;19.50;99.90;;;;;;5091390;28;20189;-51
2023/05/05 08:03:05;;;;;;;20.05;16.67;;;19.50;99.90;;;;;;5091316;28;20166;-51
2023/05/05 08:05:31;;;;;;;18.08;14.75;;;19.40;99.90;;;;;;5091205;28;20216;-51
2023/05/05 08:07:56;;;;;;;18.52;14.88;;;19.40;99.90;;;;;;5091410;28;20214;-52
2023/05/05 08:10:22;;;;;;;18.00;14.52;;;19.60;99.90;;;;;;5091171;28;20597;-51
2023/05/05 08:12:48;;;;;;;15.75;14.15;;;19.60;99.90;;;;;;5091302;28;20170;-51
2023/05/05 08:15:13;;;;;;;15.45;12.80;;;19.70;99.90;;;;;;5091704;28;20260;-51
2023/05/05 08:17:51;;;;;;;14.85;12.93;;;19.70;99.90;;;;;;5091174;28;20264;-52
2023/05/05 08:20:18;;;;;;;17.05;13.52;;;19.60;99.90;;;;;;5091580;28;20162;-51
2023/05/05 08:22:44;;;;;;;16.00;14.35;;;19.70;99.90;;;;;;5091272;28;20162;-51
2023/05/05 08:25:11;;;;;;;15.18;13.63;;;19.80;99.90;;;;;;5091190;28;20211;-51
2023/05/05 08:27:39;;;;;;;14.10;12.30;;;19.80;99.90;;;;;;5091344;28;20177;-51
2023/05/05 08:30:05;;;;;;;13.90;12.45;;;19.90;99.90;;;;;;5091162;28;20253;-51
2023/05/05 08:32:31;;;;;;;14.23;12.82;;;19.90;99.90;;;;;;5091472;28;20169;-51
2023/05/05 08:34:57;;;;;;;18.50;14.50;;;;;;;;;;5091330;28;20273;-51
2023/05/05 08:37:22;;;;;;;17.05;14.43;;;20.30;99.90;;;;;;5090658;28;20189;-51
2023/05/05 08:39:48;;;;;;;16.40;14.50;;;20.40;99.90;;;;;;5089858;28;20185;-50
2023/05/05 08:42:14;;;;;;;11.95;9.88;;;20.30;99.90;;;;;;5089919;28;20196;-47
2023/05/05 08:44:40;;;;;;;10.73;8.52;;;;;;;;;;5091260;28;20517;-48
2023/05/05 08:47:09;;;;;;;10.70;9.60;;;20.30;99.90;;;;;;5092602;28;20165;-49
2023/05/05 08:49:42;;;;;;;9.48;8.57;;;20.30;99.90;;;;;;5092677;28;20504;-48
2023/05/05 08:52:10;;;;;;;11.95;9.43;;;20.20;99.90;;;;;;5091493;28;20168;-48
2023/05/05 08:54:41;;;;;;;12.32;10.98;;;20.30;99.90;;;;;;5092773;28;20517;-48
2023/05/05 08:57:09;;;;;;;12.82;10.82;;;20.40;99.90;;;;;;5092378;28;20623;-48
2023/05/05 08:59:37;;;;;;;11.70;9.98;;;20.50;99.90;;;;;;5092507;28;20238;-50
2023/05/05 09:02:03;;;;;;;12.27;11.07;;;20.60;99.90;;;;;;5092641;28;20244;-47
2023/05/05 09:04:29;;;;;;;12.95;10.02;;;20.70;99.90;;;;;;5092391;28;20265;-48
2023/05/05 09:06:59;;;;;;;12.60;10.40;;;20.70;99.90;;;;;;5092535;28;20181;-48
2023/05/05 09:09:26;;;;;;;13.00;10.95;;;20.90;99.90;;;;;;5092246;28;20193;-49
2023/05/05 09:11:53;;;;;;;17.95;11.10;;;20.90;99.90;;;;;;5092057;28;20169;-48
2023/05/05 09:14:19;;;;;;;14.10;9.25;;;21.10;99.90;;;;;;5092258;28;20161;-49
2023/05/05 09:16:45;;;;;;;11.15;8.80;;;;;;;;;;5092661;28;20656;-48
2023/05/05 09:19:11;;;;;;;12.05;10.40;;;20.90;99.90;;;;;;5092044;28;20209;-48
2023/05/05 09:21:45;;;;;;;14.40;10.07;;;20.80;99.90;;;;;;5090827;28;20161;-50
2023/05/05 09:24:11;;;;;;;12.63;10.20;;;20.70;99.90;;;;;;5092136;28;20193;-46
2023/05/05 09:26:42;;;;;;;10.30;9.32;;;20.90;99.90;;;;;;5091168;28;20216;-45
2023/05/05 09:29:08;;;;;;;15.35;9.60;;;21.10;99.90;;;;;;5092048;28;20687;-45
2023/05/05 09:31:35;;;;;;;13.30;9.75;;;21.60;99.90;;;;;;5091874;28;20166;-48
2023/05/05 09:34:03;;;;;;;10.48;9.38;;;;;;;;;;5090186;28;20188;-47
2023/05/05 09:36:48;;;;;;;10.35;8.50;;;21.30;99.90;;;;;;5092155;28;20173;-50
2023/05/05 09:39:16;;;;;;;11.98;8.70;;;21.20;99.90;;;;;;5092356;28;20270;-50
2023/05/05 09:41:43;;;;;;;13.13;9.40;;;21.30;99.90;;;;;;5091955;28;20522;-50
2023/05/05 09:44:09;;;;;;;11.30;8.65;;;;;;;;;;5091653;28;20203;-50
2023/05/05 09:46:35;;;;;;;12.18;8.32;;;22.10;99.90;;;;;;5091764;28;20215;-47
2023/05/05 09:49:25;;;;;;;11.30;7.68;;;22.10;99.90;;;;;;5092090;28;20192;-47
2023/05/05 09:51:52;;;;;;;10.30;7.85;;;21.80;99.90;;;;;;5091475;28;20158;-51
2023/05/05 09:54:21;;;;;;;11.25;8.32;;;21.60;99.90;;;;;;5091713;28;20177;-52
2023/05/05 09:56:47;;;;;;;10.65;7.85;;;21.30;99.90;;;;;;5090544;28;20327;-48
2023/05/05 09:59:13;;;;;;;8.75;7.88;;;;;;;;;;5091518;28;20212;-47
2023/05/05 10:01:41;;;;;;;7.22;6.53;;;21.30;99.90;;;;;;5091301;28;20180;-47
2023/05/05 10:04:07;;;;;;;8.88;6.22;;;;;;;;;;5090953;28;20209;-46
2023/05/05 10:06:46;;;;;;;5.35;4.85;;;21.40;99.90;;;;;;5091131;28;20188;-48
2023/05/05 10:09:12;;;;;;;7.65;5.40;;;21.40;99.90;;;;;;5091945;28;20169;-46
2023/05/05 10:11:40;;;;;;;6.63;4.97;;;21.30;99.90;;;;;;5091278;28;20174;-47
2023/05/05 10:14:07;;;;;;;4.90;4.50;;;21.30;99.90;;;;;;5091118;28;20552;-48
2023/05/05 10:16:35;;;;;;;7.18;5.22;;;21.10;99.90;;;;;;5091526;28;20226;-48
2023/05/05 10:19:03;;;;;;;6.40;4.72;;;21.20;99.90;;;;;;5089607;28;20697;-51
2023/05/05 10:21:33;;;;;;;6.97;5.45;;;21.10;99.90;;;;;;5090997;28;20173;-49
2023/05/05 10:24:10;;;;;;;8.00;5.18;;;21.20;99.90;;;;;;5090830;28;20169;-50
2023/05/05 10:26:41;;;;;;;7.93;5.05;;;21.20;99.90;;;;;;5090783;28;20646;-49
2023/05/05 10:29:21;;;;;;;5.95;4.20;;;21.00;99.90;;;;;;5091086;28;20170;-49
2023/05/05 10:31:52;;;;;;;13.20;3.97;;;20.90;99.90;;;;;;5090723;28;20161;-48
2023/05/05 10:34:25;;;;;;;6.90;3.67;;;20.90;99.90;;;;;;5090725;28;20203;-49
2023/05/05 10:36:53;;;;;;;5.97;4.20;;;20.80;99.90;;;;;;5090827;28;20181;-49
2023/05/05 10:39:19;;;;;;;4.53;4.13;;;;;;;;;;5089264;28;20219;-49
2023/05/05 10:41:47;;;;;;;6.57;4.20;;;20.60;99.90;;;;;;5091072;28;20503;-49
2023/05/05 10:44:13;;;;;;;7.18;4.15;;;20.50;99.90;;;;;;5090780;28;20165;-49
2023/05/05 10:46:40;;;;;;;8.77;4.70;;;20.40;99.90;;;;;;5090729;28;20172;-49
2023/05/05 10:49:21;;;;;;;7.90;4.22;;;20.20;99.90;;;;;;5090445;28;20714;-50
2023/05/05 10:51:57;;;;;;;5.25;3.90;;;20.10;99.90;;;;;;5090338;28;20204;-49
2023/05/05 10:54:39;;;;;;;6.70;4.75;;;20.00;99.90;;;;;;5090549;28;20188;-49
2023/05/05 10:57:08;;;;;;;7.38;5.38;;;20.10;99.90;;;;;;5090273;28;20195;-49
2023/05/05 10:59:36;;;;;;;5.43;3.97;;;20.00;99.90;;;;;;5090529;28;20185;-49
2023/05/05 11:02:19;;;;;;;6.05;3.92;;;20.00;99.90;;;;;;5090459;28;20251;-49
2023/05/05 11:05:06;;;;;;;7.82;5.10;;;19.90;99.90;;;;;;5090379;28;20213;-49
2023/05/05 11:07:33;;;;;;;11.90;6.00;;;19.60;99.90;;;;;;5090744;28;20212;-51
2023/05/05 11:10:04;;;;;;;8.73;4.88;;;19.50;99.90;;;;;;5090341;28;20161;-49
2023/05/05 11:12:31;;;;;;;9.20;7.47;;;19.40;99.90;;;;;;5089997;28;20284;-47
2023/05/05 11:15:24;;;;;;;10.77;7.60;;;19.20;99.90;;;;;;5090208;28;20625;-48
2023/05/05 11:17:51;;;;;;;10.40;8.27;;;19.20;99.90;;;;;;5089904;28;20197;-48
2023/05/05 11:20:17;;;;;;;9.38;7.80;;;19.10;99.90;;;;;;5089959;28;20755;-48
2023/05/05 11:23:01;;;;;;;11.90;8.35;;;19.00;99.90;;;;;;5090280;28;20181;-48
2023/05/05 11:25:45;;;;;;;12.80;8.05;;;18.50;99.90;;;;;;5088575;28;20629;-50
2023/05/05 11:28:16;;;;;;;13.63;7.50;;;18.20;99.90;;;;;;5090458;28;20514;-49
2023/05/05 11:30:57;;;;;;;7.20;5.15;;;18.00;99.90;;;;;;5090491;28;20169;-49
2023/05/05 11:33:27;;;;;;;5.95;4.63;;;17.60;99.90;;;;;;5089712;28;20585;-50
2023/05/05 11:35:57;;;;;;;9.57;5.10;;;17.50;99.90;;;;;;5090136;28;20207;-50
2023/05/05 11:38:35;;;;;;;8.23;4.28;;;17.10;99.90;;;;;;5089639;28;20205;-49
2023/05/05 11:41:32;;;;;;;7.75;4.35;;;16.90;99.90;;;;;;5089483;28;20153;-49
2023/05/05 11:44:18;;;;;;;11.73;5.07;;;16.90;99.90;;;;;;5089713;28;20264;-49
2023/05/05 11:46:50;;;;;;;7.95;4.78;;;17.10;99.90;;;;;;5090006;28;20586;-50
2023/05/05 11:49:33;;;;;;;7.13;4.90;;;17.10;99.90;;;;;;5089988;28;20199;-49
2023/05/05 11:52:07;;;;;;;9.90;5.32;;;17.40;99.90;;;;;;5089568;28;20591;-50
2023/05/05 11:54:39;;;;;;;6.32;4.55;;;17.60;99.90;;;;;;5089679;28;20638;-50
2023/05/05 11:57:06;;;;;;;9.38;5.68;;;;;;;;;;5089744;28;20173;-50
2023/05/05 11:59:33;;;;;;;9.55;5.25;;;18.40;99.90;;;;;;5089392;28;20669;-50
2023/05/05 12:01:59;;;;;;;9.52;6.32;;;18.70;99.90;;;;;;5088114;28;20180;-49
2023/05/05 12:04:25;;;;;;;8.95;5.47;;;19.10;99.90;;;;;;5089261;28;20585;-50
2023/05/05 12:06:50;;;;;;;9.38;5.30;;;19.40;99.90;;;;;;5089388;28;20657;-50
2023/05/05 12:09:18;;;;;;;6.07;4.88;;;19.30;99.90;;;;;;5089503;28;20296;-50
2023/05/05 12:11:57;;;;;;;7.00;4.88;;;19.30;99.90;;;;;;5089876;28;20239;-50
2023/05/05 12:14:24;;;;;;;4.30;3.70;;;19.60;99.90;;;;;;5089367;28;20173;-50
2023/05/05 12:16:57;;;;;;;6.22;4.25;;;19.70;99.90;;;;;;5089373;28;20242;-49
2023/05/05 12:19:28;;;;;;;5.43;4.00;;;19.80;99.90;;;;;;5091583;28;20209;-50
2023/05/05 12:21:53;;;;;;;4.72;4.13;;;19.80;99.90;;;;;;5093531;28;20256;-50
2023/05/05 12:24:19;;;;;;;7.65;4.65;;;19.70;99.90;;;;;;5093109;28;20244;-49
2023/05/05 12:26:45;;;;;;;11.23;5.20;;;20.00;99.90;;;;;;5093570;28;20169;-50
2023/05/05 12:29:10;;;;;;;8.77;4.97;;;19.80;99.90;;;;;;5093305;28;20173;-50
2023/05/05 12:31:37;;;;;;;5.72;4.97;;;19.60;99.90;;;;;;5093292;28;20165;-50
2023/05/05 12:34:05;;;;;;;5.85;4.78;;;19.80;99.90;;;;;;5092906;28;20209;-50
2023/05/05 12:36:32;;;;;;;5.75;4.90;;;20.00;99.90;;;;;;5092968;28;20641;-50
2023/05/05 12:38:58;;;;;;;7.53;5.50;;;;;;;;;;5092668;28;20630;-50
2023/05/05 12:41:24;;;;;;;8.13;5.22;;;20.00;99.90;;;;;;5092971;28;20162;-50
2023/05/05 12:44:00;;;;;;;6.97;4.72;;;20.00;99.90;;;;;;5092712;28;20529;-51
2023/05/05 12:46:30;;;;;;;9.30;4.90;;;20.00;99.90;;;;;;5092850;28;20559;-50
2023/05/05 12:49:04;;;;;;;8.02;5.32;;;19.70;99.90;;;;;;5092636;28;20173;-50
2023/05/05 12:51:34;;;;;;;7.32;5.13;;;19.80;99.90;;;;;;5092649;28;20214;-50
2023/05/05 12:54:08;;;;;;;5.65;3.78;;;19.80;99.90;;;;;;5092639;28;20256;-50